createdAt,value
2019-03-27T00:00:03.436Z,0.00
2019-03-27T00:01:03.326Z,0.00
2019-03-27T00:02:03.345Z,0.00
2019-03-27T00:03:03.291Z,0.00
2019-03-27T00:04:03.393Z,0.00
2019-03-27T00:05:03.304Z,0.00
2019-03-27T00:06:03.381Z,0.00
2019-03-27T00:07:03.256Z,0.00
2019-03-27T00:08:03.294Z,0.00
2019-03-27T00:09:03.270Z,0.00
2019-03-27T00:10:03.304Z,0.00
2019-03-27T00:11:03.218Z,0.00
2019-03-27T00:12:03.320Z,0.00
2019-03-27T00:13:03.191Z,0.00
2019-03-27T00:14:03.262Z,0.00
2019-03-27T00:15:12.732Z,0.00
2019-03-27T00:16:04.160Z,0.00
2019-03-27T00:17:03.251Z,0.00
2019-03-27T00:18:03.151Z,0.00
2019-03-27T00:19:03.189Z,0.00
2019-03-27T00:20:03.168Z,0.00
2019-03-27T00:21:03.171Z,0.00
2019-03-27T00:22:03.134Z,0.00
2019-03-27T00:23:03.197Z,0.00
2019-03-27T00:24:03.071Z,0.00
2019-03-27T00:25:03.136Z,0.00
2019-03-27T00:26:03.074Z,0.00
2019-03-27T00:27:03.129Z,0.00
2019-03-27T00:28:03.056Z,0.00
2019-03-27T00:29:03.122Z,0.00
2019-03-27T00:30:03.049Z,0.00
2019-03-27T00:31:03.048Z,0.00
2019-03-27T00:32:03.014Z,0.00
2019-03-27T00:33:03.054Z,0.00
2019-03-27T00:34:02.967Z,0.00
2019-03-27T00:35:03.091Z,0.00
2019-03-27T00:36:03.146Z,0.00
2019-03-27T00:37:02.974Z,0.00
2019-03-27T00:38:02.921Z,0.00
2019-03-27T00:39:03.002Z,0.00
2019-03-27T00:40:02.960Z,0.00
2019-03-27T00:41:03.022Z,0.00
2019-03-27T00:42:02.896Z,0.00
2019-03-27T00:43:02.953Z,0.00
2019-03-27T00:44:02.857Z,0.00
2019-03-27T00:45:02.951Z,0.00
2019-03-27T00:46:02.878Z,0.00
2019-03-27T00:47:02.954Z,0.00
2019-03-27T00:48:02.843Z,0.00
2019-03-27T00:49:02.872Z,0.00
2019-03-27T00:50:02.804Z,0.00
2019-03-27T00:51:02.906Z,0.00
2019-03-27T00:52:02.786Z,0.00
2019-03-27T00:53:02.907Z,0.00
2019-03-27T00:54:02.748Z,0.00
2019-03-27T00:55:02.815Z,0.00
2019-03-27T00:56:02.749Z,0.00
2019-03-27T00:57:02.827Z,0.00
2019-03-27T00:58:02.719Z,0.00
2019-03-27T00:59:02.726Z,0.00
2019-03-27T01:00:02.689Z,0.00
2019-03-27T01:01:02.776Z,0.00
2019-03-27T01:02:02.670Z,0.00
2019-03-27T01:03:02.754Z,0.00
2019-03-27T01:04:02.651Z,0.00
2019-03-27T01:05:02.663Z,0.00
2019-03-27T01:06:02.646Z,0.00
2019-03-27T01:07:02.618Z,0.00
2019-03-27T01:08:02.608Z,0.00
2019-03-27T01:09:02.704Z,0.00
2019-03-27T01:10:02.576Z,0.00
2019-03-27T01:11:02.627Z,0.00
2019-03-27T01:12:02.563Z,0.00
2019-03-27T01:13:02.631Z,0.00
2019-03-27T01:14:02.540Z,0.00
2019-03-27T01:15:02.623Z,0.00
2019-03-27T01:16:02.528Z,0.00
2019-03-27T01:17:02.680Z,0.00
2019-03-27T01:18:02.488Z,0.00
2019-03-27T01:19:02.562Z,0.00
2019-03-27T01:20:02.472Z,0.00
2019-03-27T01:21:02.566Z,0.00
2019-03-27T01:22:02.464Z,0.00
2019-03-27T01:23:02.497Z,0.00
2019-03-27T01:24:02.423Z,0.00
2019-03-27T01:25:02.495Z,0.00
2019-03-27T01:26:02.404Z,0.00
2019-03-27T01:27:02.553Z,0.00
2019-03-27T01:28:02.396Z,0.00
2019-03-27T01:29:02.430Z,0.00
2019-03-27T01:30:02.371Z,0.00
2019-03-27T01:31:02.432Z,0.00
2019-03-27T01:32:02.375Z,0.00
2019-03-27T01:33:02.470Z,0.00
2019-03-27T01:34:02.328Z,0.00
2019-03-27T01:35:02.364Z,0.00
2019-03-27T01:36:02.297Z,0.00
2019-03-27T01:37:02.413Z,0.00
2019-03-27T01:38:02.270Z,0.00
2019-03-27T01:39:02.380Z,0.00
2019-03-27T01:40:02.252Z,0.00
2019-03-27T01:41:02.304Z,0.00
2019-03-27T01:42:02.252Z,0.00
2019-03-27T01:43:02.311Z,0.00
2019-03-27T01:44:02.208Z,0.00
2019-03-27T01:45:02.222Z,0.00
2019-03-27T01:46:02.186Z,0.00
2019-03-27T01:47:02.270Z,0.00
2019-03-27T01:48:02.164Z,0.00
2019-03-27T01:49:02.258Z,0.00
2019-03-27T01:50:02.173Z,0.00
2019-03-27T01:51:02.168Z,0.00
2019-03-27T01:52:02.160Z,0.00
2019-03-27T01:53:02.190Z,0.00
2019-03-27T01:54:02.123Z,0.00
2019-03-27T01:55:02.190Z,0.00
2019-03-27T01:56:02.101Z,0.00
2019-03-27T01:57:02.248Z,0.00
2019-03-27T01:58:02.059Z,0.00
2019-03-27T01:59:02.116Z,0.00
2019-03-27T02:00:02.037Z,0.00
2019-03-27T02:01:02.133Z,0.00
2019-03-27T02:02:02.048Z,0.00
2019-03-27T02:03:02.078Z,0.00
2019-03-27T02:04:01.993Z,0.00
2019-03-27T02:06:03.022Z,0.00
2019-03-27T02:07:02.102Z,0.00
2019-03-27T02:08:01.982Z,0.00
2019-03-27T02:09:01.988Z,0.00
2019-03-27T02:10:01.937Z,0.00
2019-03-27T02:11:02.015Z,0.00
2019-03-27T02:12:01.922Z,0.00
2019-03-27T02:13:02.093Z,0.00
2019-03-27T02:14:01.881Z,0.00
2019-03-27T02:15:01.923Z,0.00
2019-03-27T02:16:07.048Z,0.00
2019-03-27T02:17:02.953Z,0.00
2019-03-27T02:18:01.867Z,0.00
2019-03-27T02:19:01.959Z,0.00
2019-03-27T02:20:01.847Z,0.00
2019-03-27T02:22:02.846Z,0.00
2019-03-27T02:23:02.930Z,0.00
2019-03-27T02:24:01.782Z,0.00
2019-03-27T02:25:01.903Z,0.00
2019-03-27T02:26:01.749Z,0.00
2019-03-27T02:27:01.802Z,0.00
2019-03-27T02:28:01.788Z,0.00
2019-03-27T02:29:01.815Z,0.00
2019-03-27T02:30:01.716Z,0.00
2019-03-27T02:31:01.729Z,0.00
2019-03-27T02:32:01.711Z,0.00
2019-03-27T02:33:01.741Z,0.00
2019-03-27T02:34:01.754Z,0.00
2019-03-27T02:35:01.766Z,0.00
2019-03-27T02:36:01.646Z,0.00
2019-03-27T02:38:02.675Z,0.00
2019-03-27T02:39:01.707Z,0.00
2019-03-27T02:40:01.621Z,0.00
2019-03-27T02:41:01.707Z,0.00
2019-03-27T02:42:01.587Z,0.00
2019-03-27T02:43:01.601Z,0.00
2019-03-27T02:44:01.591Z,0.00
2019-03-27T02:45:01.617Z,0.00
2019-03-27T02:46:01.549Z,0.00
2019-03-27T02:47:01.628Z,0.00
2019-03-27T02:48:01.517Z,0.00
2019-03-27T02:49:01.545Z,0.00
2019-03-27T02:50:01.522Z,0.00
2019-03-27T02:51:01.567Z,0.00
2019-03-27T02:52:01.485Z,0.00
2019-03-27T02:53:01.573Z,0.00
2019-03-27T02:54:01.480Z,0.00
2019-03-27T02:55:01.482Z,0.00
2019-03-27T02:56:01.423Z,0.00
2019-03-27T02:57:01.628Z,0.00
2019-03-27T02:58:01.411Z,0.00
2019-03-27T02:59:01.541Z,0.00
2019-03-27T03:00:01.421Z,0.00
2019-03-27T03:01:01.421Z,0.00
2019-03-27T03:02:01.363Z,0.00
2019-03-27T03:03:01.434Z,0.00
2019-03-27T03:04:01.342Z,0.00
2019-03-27T03:05:02.402Z,0.00
2019-03-27T03:06:01.351Z,0.00
2019-03-27T03:07:01.364Z,0.00
2019-03-27T03:08:01.295Z,0.00
2019-03-27T03:09:01.428Z,0.00
2019-03-27T03:10:01.378Z,0.00
2019-03-27T03:11:01.391Z,0.00
2019-03-27T03:12:01.258Z,0.00
2019-03-27T03:13:01.301Z,0.00
2019-03-27T03:14:01.244Z,0.00
2019-03-27T03:15:01.349Z,0.00
2019-03-27T03:16:01.228Z,0.00
2019-03-27T03:17:01.325Z,0.00
2019-03-27T03:18:01.220Z,0.00
2019-03-27T03:19:01.276Z,0.00
2019-03-27T03:20:01.281Z,0.00
2019-03-27T03:21:01.253Z,0.00
2019-03-27T03:22:01.180Z,0.00
2019-03-27T03:23:01.169Z,0.00
2019-03-27T03:24:01.120Z,0.00
2019-03-27T03:25:01.219Z,0.00
2019-03-27T03:26:01.117Z,0.00
2019-03-27T03:27:01.222Z,0.00
2019-03-27T03:28:01.089Z,0.00
2019-03-27T03:29:01.109Z,0.00
2019-03-27T03:30:01.057Z,0.00
2019-03-27T03:31:01.180Z,0.00
2019-03-27T03:32:01.031Z,0.00
2019-03-27T03:33:01.143Z,0.00
2019-03-27T03:34:01.143Z,0.00
2019-03-27T03:35:01.117Z,0.00
2019-03-27T03:36:01.025Z,0.00
2019-03-27T03:37:01.057Z,0.00
2019-03-27T03:38:00.980Z,0.00
2019-03-27T03:39:01.092Z,0.00
2019-03-27T03:40:00.954Z,0.00
2019-03-27T03:41:01.015Z,0.00
2019-03-27T03:42:00.936Z,0.00
2019-03-27T03:43:01.000Z,0.00
2019-03-27T03:44:00.909Z,0.00
2019-03-27T03:45:01.028Z,0.00
2019-03-27T03:46:00.923Z,0.00
2019-03-27T03:47:00.945Z,0.00
2019-03-27T03:48:00.913Z,0.00
2019-03-27T03:49:00.951Z,0.00
2019-03-27T03:50:00.958Z,0.00
2019-03-27T03:51:01.009Z,0.00
2019-03-27T03:52:00.827Z,0.00
2019-03-27T03:53:00.875Z,0.00
2019-03-27T03:54:00.797Z,0.00
2019-03-27T03:55:00.919Z,0.00
2019-03-27T03:56:00.838Z,0.00
2019-03-27T03:57:00.806Z,0.00
2019-03-27T03:58:00.751Z,0.00
2019-03-27T03:59:00.805Z,0.00
2019-03-27T04:00:00.725Z,0.00
2019-03-27T04:01:00.907Z,0.00
2019-03-27T04:02:00.752Z,0.00
2019-03-27T04:03:00.742Z,0.00
2019-03-27T04:04:00.708Z,0.00
2019-03-27T04:05:00.744Z,0.00
2019-03-27T04:06:00.668Z,0.00
2019-03-27T04:07:01.736Z,0.00
2019-03-27T04:08:00.646Z,0.00
2019-03-27T04:10:01.671Z,0.00
2019-03-27T04:11:00.680Z,0.00
2019-03-27T04:12:00.625Z,0.00
2019-03-27T04:13:00.694Z,0.00
2019-03-27T04:14:00.577Z,0.00
2019-03-27T04:15:00.611Z,0.00
2019-03-27T04:16:00.574Z,0.00
2019-03-27T04:17:16.308Z,0.00
2019-03-27T04:18:01.552Z,0.00
2019-03-27T04:19:00.643Z,0.00
2019-03-27T04:20:00.523Z,0.00
2019-03-27T04:21:00.547Z,0.00
2019-03-27T04:22:00.516Z,0.00
2019-03-27T04:23:00.557Z,0.00
2019-03-27T04:24:00.467Z,0.00
2019-03-27T04:26:09.521Z,0.00
2019-03-27T04:27:01.552Z,0.00
2019-03-27T04:28:00.480Z,0.00
2019-03-27T04:29:00.554Z,0.00
2019-03-27T04:30:00.491Z,0.00
2019-03-27T04:31:00.571Z,0.00
2019-03-27T04:32:00.379Z,0.00
2019-03-27T04:33:00.451Z,0.00
2019-03-27T04:34:00.379Z,0.00
2019-03-27T04:35:00.637Z,0.00
2019-03-27T04:36:00.351Z,0.00
2019-03-27T04:37:00.354Z,0.00
2019-03-27T04:38:00.348Z,0.00
2019-03-27T04:40:01.343Z,0.00
2019-03-27T04:41:00.386Z,0.00
2019-03-27T04:42:00.268Z,0.00
2019-03-27T04:43:00.323Z,0.00
2019-03-27T04:44:00.242Z,0.00
2019-03-27T04:45:00.434Z,0.00
2019-03-27T04:46:00.229Z,0.00
2019-03-27T04:47:00.321Z,0.00
2019-03-27T04:48:00.229Z,0.00
2019-03-27T04:49:00.257Z,0.00
2019-03-27T04:50:00.454Z,0.00
2019-03-27T04:51:00.238Z,0.00
2019-03-27T04:52:00.156Z,4.00
2019-03-27T04:53:00.287Z,0.00
2019-03-27T04:54:00.168Z,0.00
2019-03-27T04:55:00.398Z,0.00
2019-03-27T04:56:00.115Z,4.00
2019-03-27T04:57:00.185Z,0.00
2019-03-27T04:58:00.087Z,0.00
2019-03-27T04:59:00.239Z,4.00
2019-03-27T05:00:00.400Z,4.00
2019-03-27T05:01:00.147Z,4.00
2019-03-27T05:02:00.046Z,8.00
2019-03-27T05:03:00.172Z,4.00
2019-03-27T05:04:00.064Z,8.00
2019-03-27T05:06:01.055Z,12.00
2019-03-27T05:07:00.056Z,12.00
2019-03-27T05:07:59.979Z,16.00
2019-03-27T05:09:00.094Z,20.00
2019-03-27T05:09:59.989Z,20.00
2019-03-27T05:11:00.088Z,20.00
2019-03-27T05:11:59.970Z,24.00
2019-03-27T05:12:59.988Z,24.00
2019-03-27T05:13:59.949Z,28.00
2019-03-27T05:15:00.003Z,28.00
2019-03-27T05:15:59.924Z,32.00
2019-03-27T05:16:59.921Z,44.00
2019-03-27T05:17:59.873Z,48.00
2019-03-27T05:18:59.971Z,60.00
2019-03-27T05:19:59.884Z,64.00
2019-03-27T05:20:59.943Z,72.00
2019-03-27T05:21:59.843Z,84.00
2019-03-27T05:22:59.856Z,84.00
2019-03-27T05:23:59.878Z,84.00
2019-03-27T05:24:59.867Z,88.00
2019-03-27T05:25:59.794Z,96.00
2019-03-27T05:26:59.893Z,96.00
2019-03-27T05:27:59.763Z,92.00
2019-03-27T05:28:59.826Z,92.00
2019-03-27T05:29:59.801Z,104.00
2019-03-27T05:30:59.810Z,124.00
2019-03-27T05:31:59.750Z,144.00
2019-03-27T05:32:59.821Z,156.00
2019-03-27T05:33:59.717Z,160.00
2019-03-27T05:34:59.774Z,164.00
2019-03-27T05:35:59.680Z,176.00
2019-03-27T05:36:59.756Z,188.00
2019-03-27T05:37:59.671Z,196.00
2019-03-27T05:38:59.761Z,216.00
2019-03-27T05:39:59.730Z,232.00
2019-03-27T05:40:59.690Z,244.00
2019-03-27T05:41:59.631Z,244.00
2019-03-27T05:43:01.196Z,256.00
2019-03-27T05:43:59.605Z,264.00
2019-03-27T05:44:59.724Z,264.00
2019-03-27T05:45:59.569Z,264.00
2019-03-27T05:46:59.636Z,292.00
2019-03-27T05:48:00.187Z,320.00
2019-03-27T05:48:59.624Z,336.00
2019-03-27T05:49:59.567Z,352.00
2019-03-27T05:50:59.634Z,368.00
2019-03-27T05:51:59.534Z,392.00
2019-03-27T05:52:59.547Z,396.00
2019-03-27T05:53:59.483Z,396.00
2019-03-27T05:54:59.604Z,392.00
2019-03-27T05:55:59.487Z,392.00
2019-03-27T05:56:59.599Z,392.00
2019-03-27T05:57:59.445Z,404.00
2019-03-27T05:58:59.497Z,412.00
2019-03-27T05:59:59.460Z,408.00
2019-03-27T06:00:59.527Z,400.00
2019-03-27T06:01:59.408Z,388.00
2019-03-27T06:02:59.529Z,384.00
2019-03-27T06:03:59.372Z,396.00
2019-03-27T06:04:59.448Z,420.00
2019-03-27T06:05:59.583Z,480.00
2019-03-27T06:06:59.478Z,536.00
2019-03-27T06:07:59.351Z,560.00
2019-03-27T06:08:59.348Z,552.00
2019-03-27T06:09:59.350Z,552.00
2019-03-27T06:10:59.363Z,564.00
2019-03-27T06:11:59.286Z,596.00
2019-03-27T06:12:59.375Z,592.00
2019-03-27T06:13:59.283Z,652.00
2019-03-27T06:14:59.328Z,660.00
2019-03-27T06:15:59.285Z,684.00
2019-03-27T06:16:59.307Z,692.00
2019-03-27T06:18:12.259Z,724.00
2019-03-27T06:19:00.212Z,660.00
2019-03-27T06:19:59.359Z,676.00
2019-03-27T06:20:59.266Z,684.00
2019-03-27T06:21:59.267Z,688.00
2019-03-27T06:22:59.182Z,736.00
2019-03-27T06:23:59.253Z,800.00
2019-03-27T06:24:59.149Z,816.00
2019-03-27T06:25:59.297Z,772.00
2019-03-27T06:26:59.137Z,744.00
2019-03-27T06:27:59.181Z,668.00
2019-03-27T06:28:59.110Z,624.00
2019-03-27T06:29:59.214Z,636.00
2019-03-27T06:30:59.115Z,724.00
2019-03-27T06:31:59.142Z,772.00
2019-03-27T06:32:59.078Z,772.00
2019-03-27T06:33:59.129Z,828.00
2019-03-27T06:34:59.057Z,856.00
2019-03-27T06:35:59.135Z,840.00
2019-03-27T06:36:59.050Z,848.00
2019-03-27T06:37:59.047Z,856.00
2019-03-27T06:38:59.003Z,876.00
2019-03-27T06:39:59.067Z,936.00
2019-03-27T06:40:59.021Z,1108.00
2019-03-27T06:41:59.087Z,1148.00
2019-03-27T06:42:58.989Z,1104.00
2019-03-27T06:43:58.979Z,1124.00
2019-03-27T06:44:58.937Z,1192.00
2019-03-27T06:45:58.994Z,1188.00
2019-03-27T06:46:58.934Z,1088.00
2019-03-27T06:47:59.013Z,1288.00
2019-03-27T06:48:58.899Z,1412.00
2019-03-27T06:49:58.919Z,1448.00
2019-03-27T06:50:58.865Z,1520.00
2019-03-27T06:51:58.963Z,1552.00
2019-03-27T06:52:58.873Z,1520.00
2019-03-27T06:53:58.953Z,1460.00
2019-03-27T06:54:58.830Z,1428.00
2019-03-27T06:55:58.867Z,1476.00
2019-03-27T06:57:01.186Z,1452.00
2019-03-27T06:57:58.929Z,1488.00
2019-03-27T06:58:58.795Z,1564.00
2019-03-27T06:59:58.889Z,1616.00
2019-03-27T07:00:58.779Z,1456.00
2019-03-27T07:01:58.841Z,1520.00
2019-03-27T07:02:58.745Z,1476.00
2019-03-27T07:04:09.843Z,1652.00
2019-03-27T07:04:59.725Z,1888.00
2019-03-27T07:05:58.828Z,1964.00
2019-03-27T07:06:58.700Z,1936.00
2019-03-27T07:07:58.763Z,1732.00
2019-03-27T07:08:58.671Z,1568.00
2019-03-27T07:09:58.750Z,1564.00
2019-03-27T07:10:58.665Z,1628.00
2019-03-27T07:11:58.775Z,1564.00
2019-03-27T07:12:58.664Z,1628.00
2019-03-27T07:13:58.687Z,1836.00
2019-03-27T07:14:58.627Z,1932.00
2019-03-27T07:15:58.723Z,1752.00
2019-03-27T07:16:58.586Z,1424.00
2019-03-27T07:17:58.637Z,1824.00
2019-03-27T07:18:58.602Z,1824.00
2019-03-27T07:19:58.624Z,1932.00
2019-03-27T07:20:58.555Z,1964.00
2019-03-27T07:22:59.582Z,1700.00
2019-03-27T07:23:58.576Z,1832.00
2019-03-27T07:24:58.503Z,1728.00
2019-03-27T07:25:58.556Z,1808.00
2019-03-27T07:26:58.489Z,1688.00
2019-03-27T07:27:58.586Z,1512.00
2019-03-27T07:28:58.525Z,1576.00
2019-03-27T07:29:58.883Z,1892.00
2019-03-27T07:30:58.646Z,1860.00
2019-03-27T07:31:58.492Z,1692.00
2019-03-27T07:32:58.447Z,1540.00
2019-03-27T07:33:58.510Z,1576.00
2019-03-27T07:34:58.400Z,1724.00
2019-03-27T07:35:58.422Z,1740.00
2019-03-27T07:36:58.377Z,1872.00
2019-03-27T07:37:58.525Z,2076.00
2019-03-27T07:39:10.497Z,2004.00
2019-03-27T07:39:59.342Z,1980.00
2019-03-27T07:40:58.374Z,2204.00
2019-03-27T07:41:58.313Z,2452.00
2019-03-27T07:42:58.392Z,2452.00
2019-03-27T07:43:58.334Z,2272.00
2019-03-27T07:44:58.399Z,2172.00
2019-03-27T07:45:58.307Z,2136.00
2019-03-27T07:46:58.305Z,2228.00
2019-03-27T07:47:58.270Z,2436.00
2019-03-27T07:48:58.361Z,2308.00
2019-03-27T07:49:58.236Z,2220.00
2019-03-27T07:50:58.315Z,2480.00
2019-03-27T07:51:58.202Z,2504.00
2019-03-27T07:52:58.242Z,2592.00
2019-03-27T07:53:58.227Z,2600.00
2019-03-27T07:54:58.320Z,2760.00
2019-03-27T07:55:58.214Z,3116.00
2019-03-27T07:56:58.256Z,3040.00
2019-03-27T07:57:58.171Z,2860.00
2019-03-27T07:58:59.804Z,2748.00
2019-03-27T07:59:58.114Z,2616.00
2019-03-27T08:01:59.152Z,3036.00
2019-03-27T08:02:58.198Z,3112.00
2019-03-27T08:03:58.072Z,3136.00
2019-03-27T08:04:58.153Z,3228.00
2019-03-27T08:05:58.056Z,3160.00
2019-03-27T08:07:59.079Z,3328.00
2019-03-27T08:08:58.172Z,3024.00
2019-03-27T08:09:58.076Z,3000.00
2019-03-27T08:10:58.060Z,3208.00
2019-03-27T08:11:58.005Z,3468.00
2019-03-27T08:12:58.416Z,3196.00
2019-03-27T08:13:57.961Z,2776.00
2019-03-27T08:14:58.016Z,3000.00
2019-03-27T08:15:57.947Z,3464.00
2019-03-27T08:16:58.001Z,3300.00
2019-03-27T08:17:57.923Z,3096.00
2019-03-27T08:19:07.476Z,3248.00
2019-03-27T08:19:58.925Z,3852.00
2019-03-27T08:20:57.914Z,3804.00
2019-03-27T08:21:57.895Z,3308.00
2019-03-27T08:22:57.944Z,3520.00
2019-03-27T08:23:57.865Z,3592.00
2019-03-27T08:24:58.082Z,3468.00
2019-03-27T08:26:58.827Z,3344.00
2019-03-27T08:27:57.870Z,4008.00
2019-03-27T08:28:57.809Z,2820.00
2019-03-27T08:29:57.902Z,2648.00
2019-03-27T08:30:57.811Z,2672.00
2019-03-27T08:31:57.886Z,2792.00
2019-03-27T08:32:57.768Z,2948.00
2019-03-27T08:33:57.800Z,3192.00
2019-03-27T08:34:57.833Z,3388.00
2019-03-27T08:35:57.873Z,3616.00
2019-03-27T08:36:57.715Z,3616.00
2019-03-27T08:37:57.727Z,3524.00
2019-03-27T08:38:57.797Z,3624.00
2019-03-27T08:39:57.738Z,3880.00
2019-03-27T08:40:57.755Z,5052.00
2019-03-27T08:41:57.769Z,5176.00
2019-03-27T08:42:57.652Z,5308.00
2019-03-27T08:43:57.668Z,5016.00
2019-03-27T08:44:57.626Z,3876.00
2019-03-27T08:45:57.798Z,2284.00
2019-03-27T08:46:57.600Z,1976.00
2019-03-27T08:47:57.690Z,1768.00
2019-03-27T08:48:57.638Z,1652.00
2019-03-27T08:49:57.607Z,1676.00
2019-03-27T08:50:57.602Z,1672.00
2019-03-27T08:51:57.646Z,1852.00
2019-03-27T08:52:57.560Z,2536.00
2019-03-27T08:53:57.629Z,3052.00
2019-03-27T08:54:57.530Z,3636.00
2019-03-27T08:55:57.539Z,4336.00
2019-03-27T08:56:57.522Z,4572.00
2019-03-27T08:57:57.566Z,4540.00
2019-03-27T08:58:57.476Z,3996.00
2019-03-27T08:59:57.682Z,3808.00
2019-03-27T09:00:57.453Z,3720.00
2019-03-27T09:01:57.509Z,3536.00
2019-03-27T09:02:57.431Z,3140.00
2019-03-27T09:03:57.502Z,3104.00
2019-03-27T09:04:57.412Z,3040.00
2019-03-27T09:05:57.508Z,2864.00
2019-03-27T09:06:57.408Z,2768.00
2019-03-27T09:07:57.444Z,2768.00
2019-03-27T09:08:57.373Z,1960.00
2019-03-27T09:09:57.442Z,1716.00
2019-03-27T09:10:57.364Z,2156.00
2019-03-27T09:11:57.588Z,2412.00
2019-03-27T09:12:57.334Z,2432.00
2019-03-27T09:13:57.372Z,3072.00
2019-03-27T09:14:57.336Z,3880.00
2019-03-27T09:15:57.379Z,4348.00
2019-03-27T09:16:57.333Z,4168.00
2019-03-27T09:17:57.412Z,5068.00
2019-03-27T09:18:57.263Z,3596.00
2019-03-27T09:19:57.311Z,3976.00
2019-03-27T09:20:57.241Z,3620.00
2019-03-27T09:21:57.371Z,3268.00
2019-03-27T09:22:57.244Z,2972.00
2019-03-27T09:23:57.229Z,3076.00
2019-03-27T09:24:57.197Z,3256.00
2019-03-27T09:25:57.267Z,3472.00
2019-03-27T09:26:57.212Z,3580.00
2019-03-27T09:27:57.262Z,3412.00
2019-03-27T09:28:57.165Z,3352.00
2019-03-27T09:29:57.188Z,3408.00
2019-03-27T09:30:57.124Z,3512.00
2019-03-27T09:31:57.214Z,3584.00
2019-03-27T09:32:57.151Z,3984.00
2019-03-27T09:33:57.205Z,4540.00
2019-03-27T09:34:57.113Z,4368.00
2019-03-27T09:35:57.141Z,3924.00
2019-03-27T09:36:57.067Z,3464.00
2019-03-27T09:37:57.236Z,3256.00
2019-03-27T09:38:57.059Z,3192.00
2019-03-27T09:39:57.132Z,3160.00
2019-03-27T09:40:57.034Z,2816.00
2019-03-27T09:41:57.147Z,1824.00
2019-03-27T09:42:57.014Z,1736.00
2019-03-27T09:43:57.161Z,1872.00
2019-03-27T09:44:56.969Z,1888.00
2019-03-27T09:45:57.280Z,3288.00
2019-03-27T09:46:56.977Z,3312.00
2019-03-27T09:47:57.422Z,3308.00
2019-03-27T09:48:56.924Z,3252.00
2019-03-27T09:49:57.515Z,3184.00
2019-03-27T09:50:56.914Z,1780.00
2019-03-27T09:52:58.105Z,2060.00
2019-03-27T09:54:57.919Z,1956.00
2019-03-27T09:56:45.786Z,2060.00
2019-03-27T09:57:57.921Z,1960.00
2019-03-27T09:58:58.929Z,3616.00
2019-03-27T09:59:56.811Z,3580.00
2019-03-27T10:00:58.921Z,3412.00
2019-03-27T10:01:56.802Z,3308.00
2019-03-27T10:02:59.142Z,3360.00
2019-03-27T10:03:56.794Z,3644.00
2019-03-27T10:04:59.251Z,3612.00
2019-03-27T10:05:56.749Z,3504.00
2019-03-27T10:07:57.767Z,4420.00
2019-03-27T10:08:59.418Z,3644.00
2019-03-27T10:09:56.720Z,3440.00
2019-03-27T10:11:57.753Z,4652.00
2019-03-27T10:13:57.839Z,4264.00
2019-03-27T10:15:57.701Z,3468.00
2019-03-27T10:17:57.667Z,3432.00
2019-03-27T10:19:00.002Z,3516.00
2019-03-27T10:20:03.204Z,3636.00
2019-03-27T10:21:00.078Z,3740.00
2019-03-27T10:21:56.573Z,3864.00
2019-03-27T10:23:57.652Z,4008.00
2019-03-27T10:25:01.287Z,3984.00
2019-03-27T10:25:56.538Z,3964.00
2019-03-27T10:27:01.292Z,3296.00
2019-03-27T10:27:56.501Z,3888.00
2019-03-27T10:29:00.476Z,2560.00
2019-03-27T10:29:56.509Z,2664.00
2019-03-27T10:31:56.496Z,2916.00
2019-03-27T10:32:58.529Z,4420.00
2019-03-27T10:33:56.448Z,4720.00
2019-03-27T10:34:56.537Z,4836.00
2019-03-27T10:35:56.411Z,5280.00
2019-03-27T10:36:56.506Z,5468.00
2019-03-27T10:37:56.403Z,4148.00
2019-03-27T10:38:56.423Z,4080.00
2019-03-27T10:39:56.408Z,5656.00
2019-03-27T10:40:56.448Z,5916.00
2019-03-27T10:41:56.357Z,4668.00
2019-03-27T10:42:56.445Z,6360.00
2019-03-27T10:43:56.339Z,5384.00
2019-03-27T10:44:56.395Z,5772.00
2019-03-27T10:45:56.310Z,5276.00
2019-03-27T10:46:56.373Z,5340.00
2019-03-27T10:47:56.317Z,5256.00
2019-03-27T10:48:56.394Z,5572.00
2019-03-27T10:49:56.301Z,5364.00
2019-03-27T10:50:56.339Z,5744.00
2019-03-27T10:51:56.247Z,5456.00
2019-03-27T10:52:56.307Z,5672.00
2019-03-27T10:53:56.271Z,4944.00
2019-03-27T10:54:56.356Z,5052.00
2019-03-27T10:55:56.221Z,4804.00
2019-03-27T10:56:56.235Z,5332.00
2019-03-27T10:57:56.192Z,4988.00
2019-03-27T10:58:56.251Z,4908.00
2019-03-27T10:59:56.186Z,4716.00
2019-03-27T11:00:56.263Z,4712.00
2019-03-27T11:01:56.137Z,4416.00
2019-03-27T11:02:56.186Z,4500.00
2019-03-27T11:03:56.124Z,4608.00
2019-03-27T11:04:56.252Z,5400.00
2019-03-27T11:05:56.104Z,5256.00
2019-03-27T11:06:56.250Z,5404.00
2019-03-27T11:07:56.067Z,5772.00
2019-03-27T11:08:56.132Z,5788.00
2019-03-27T11:09:56.053Z,6088.00
2019-03-27T11:10:56.203Z,5576.00
2019-03-27T11:11:56.023Z,5076.00
2019-03-27T11:12:56.037Z,4532.00
2019-03-27T11:13:56.000Z,4392.00
2019-03-27T11:14:56.063Z,4448.00
2019-03-27T11:15:56.015Z,4116.00
2019-03-27T11:16:56.074Z,4060.00
2019-03-27T11:17:55.974Z,3892.00
2019-03-27T11:18:55.963Z,3912.00
2019-03-27T11:19:55.935Z,4072.00
2019-03-27T11:20:56.032Z,4304.00
2019-03-27T11:21:55.918Z,4592.00
2019-03-27T11:22:56.006Z,4888.00
2019-03-27T11:23:55.905Z,5052.00
2019-03-27T11:24:55.926Z,5104.00
2019-03-27T11:25:55.891Z,5092.00
2019-03-27T11:26:55.933Z,5024.00
2019-03-27T11:27:55.852Z,4900.00
2019-03-27T11:28:55.949Z,4752.00
2019-03-27T11:29:55.836Z,4624.00
2019-03-27T11:30:56.100Z,4520.00
2019-03-27T11:31:55.815Z,4412.00
2019-03-27T11:32:55.870Z,4320.00
2019-03-27T11:33:55.777Z,4244.00
2019-03-27T11:34:55.883Z,4368.00
2019-03-27T11:35:55.799Z,4404.00
2019-03-27T11:36:55.846Z,4500.00
2019-03-27T11:37:55.746Z,4804.00
2019-03-27T11:38:55.814Z,5092.00
2019-03-27T11:39:55.716Z,5228.00
2019-03-27T11:40:55.834Z,5388.00
2019-03-27T11:41:55.728Z,5340.00
2019-03-27T11:42:55.739Z,5168.00
2019-03-27T11:43:55.680Z,5412.00
2019-03-27T11:44:55.756Z,5684.00
2019-03-27T11:45:55.655Z,5736.00
2019-03-27T11:46:55.702Z,5708.00
2019-03-27T11:47:55.632Z,5808.00
2019-03-27T11:48:55.705Z,5912.00
2019-03-27T11:49:55.609Z,6016.00
2019-03-27T11:50:55.689Z,6004.00
2019-03-27T11:51:55.619Z,6144.00
2019-03-27T11:52:55.601Z,6276.00
2019-03-27T11:53:55.608Z,6472.00
2019-03-27T11:54:55.698Z,6372.00
2019-03-27T11:55:55.576Z,6240.00
2019-03-27T11:56:55.691Z,6128.00
2019-03-27T11:57:55.535Z,5952.00
2019-03-27T11:58:55.572Z,5812.00
2019-03-27T11:59:55.500Z,5704.00
2019-03-27T12:00:55.565Z,5536.00
2019-03-27T12:01:55.609Z,5300.00
2019-03-27T12:02:55.584Z,5144.00
2019-03-27T12:03:55.454Z,4952.00
2019-03-27T12:04:55.481Z,4856.00
2019-03-27T12:05:55.453Z,4796.00
2019-03-27T12:06:55.536Z,4836.00
2019-03-27T12:07:55.450Z,4076.00
2019-03-27T12:08:55.510Z,4788.00
2019-03-27T12:09:55.390Z,5024.00
2019-03-27T12:10:55.436Z,4736.00
2019-03-27T12:11:55.390Z,4440.00
2019-03-27T12:12:55.482Z,4172.00
2019-03-27T12:13:55.348Z,4100.00
2019-03-27T12:14:55.477Z,3964.00
2019-03-27T12:15:55.337Z,3856.00
2019-03-27T12:16:55.364Z,3584.00
2019-03-27T12:17:55.331Z,3872.00
2019-03-27T12:18:55.386Z,3980.00
2019-03-27T12:19:55.300Z,4164.00
2019-03-27T12:20:59.519Z,4344.00
2019-03-27T12:21:55.268Z,4704.00
2019-03-27T12:22:57.820Z,5024.00
2019-03-27T12:23:55.249Z,5324.00
2019-03-27T12:24:55.309Z,5060.00
2019-03-27T12:25:55.561Z,4900.00
2019-03-27T12:26:55.338Z,4464.00
2019-03-27T12:27:55.253Z,4212.00
2019-03-27T12:28:55.243Z,4316.00
2019-03-27T12:29:55.174Z,4676.00
2019-03-27T12:30:55.258Z,5172.00
2019-03-27T12:31:55.187Z,5564.00
2019-03-27T12:32:55.305Z,5732.00
2019-03-27T12:33:55.133Z,5724.00
2019-03-27T12:34:55.183Z,5636.00
2019-03-27T12:35:55.107Z,5496.00
2019-03-27T12:36:55.192Z,5400.00
2019-03-27T12:37:55.126Z,5304.00
2019-03-27T12:38:55.122Z,5108.00
2019-03-27T12:39:55.064Z,5048.00
2019-03-27T12:40:55.119Z,5024.00
2019-03-27T12:41:55.312Z,5240.00
2019-03-27T12:42:55.127Z,5692.00
2019-03-27T12:43:55.068Z,4928.00
2019-03-27T12:44:55.052Z,4348.00
2019-03-27T12:45:55.003Z,3572.00
2019-03-27T12:46:55.054Z,3224.00
2019-03-27T12:47:54.998Z,3112.00
2019-03-27T12:48:55.103Z,3072.00
2019-03-27T12:49:54.955Z,3136.00
2019-03-27T12:50:54.978Z,3356.00
2019-03-27T12:51:54.939Z,3604.00
2019-03-27T12:52:54.997Z,3748.00
2019-03-27T12:53:54.962Z,4008.00
2019-03-27T12:54:55.019Z,4360.00
2019-03-27T12:55:54.902Z,5636.00
2019-03-27T12:56:54.928Z,5164.00